Time;durP1;ratioP1;P1;durP2;ratioP2;P2;SDS_P1;SDS_P2;PMS_P1;PMS_P2;Temp;Humidity;BMP_temperature;BMP_pressure;BME280_temperature;BME280_humidity;BME280_pressure;Samples;Min_cycle;Max_cycle;Signal;HPM_P1;HPM_P2
2023/11/13 00:01:40;;;;;;;4.68;2.95;;;23.40;52.00;;;;;;6175944;28;80578;-64
2023/11/13 00:04:40;;;;;;;5.22;3.33;;;23.50;52.10;;;;;;6173347;28;80534;-64
2023/11/13 00:07:41;;;;;;;6.03;3.08;;;23.40;52.10;;;;;;6175797;28;81843;-64
2023/11/13 00:10:41;;;;;;;3.53;2.67;;;23.40;51.70;;;;;;6175547;28;80739;-53
2023/11/13 00:13:42;;;;;;;5.10;2.90;;;23.40;52.20;;;;;;6173974;28;80952;-55
2023/11/13 00:16:43;;;;;;;4.85;3.38;;;23.40;51.90;;;;;;6176180;28;82472;-53
2023/11/13 00:19:43;;;;;;;5.82;3.40;;;23.50;51.70;;;;;;6176320;28;80970;-55
2023/11/13 00:22:44;;;;;;;5.25;3.28;;;23.50;51.90;;;;;;6178692;28;80492;-53
2023/11/13 00:25:45;;;;;;;5.35;3.15;;;23.50;51.60;;;;;;6179831;28;80427;-55
2023/11/13 00:28:45;;;;;;;4.28;3.13;;;23.50;51.60;;;;;;6178967;28;80962;-53
2023/11/13 00:31:45;;;;;;;4.28;2.75;;;23.50;51.90;;;;;;6175663;28;84137;-56
2023/11/13 00:34:46;;;;;;;5.80;3.45;;;23.40;51.80;;;;;;6178988;28;80983;-52
2023/11/13 00:37:47;;;;;;;4.65;3.20;;;23.40;51.90;;;;;;6179441;28;80416;-56
2023/11/13 00:40:47;;;;;;;5.28;2.83;;;23.50;51.90;;;;;;6179316;28;80723;-55
2023/11/13 00:43:48;;;;;;;4.90;3.17;;;23.50;51.60;;;;;;6180462;28;81615;-55
2023/11/13 00:46:49;;;;;;;5.35;2.78;;;23.50;51.60;;;;;;6179520;28;81103;-53
2023/11/13 00:49:49;;;;;;;3.50;2.42;;;23.40;51.60;;;;;;6177108;28;80493;-53
2023/11/13 00:52:50;;;;;;;4.47;3.00;;;23.50;51.10;;;;;;6177765;28;83424;-54
2023/11/13 00:55:51;;;;;;;5.53;3.17;;;23.50;51.50;;;;;;6177495;28;81811;-55
2023/11/13 00:58:52;;;;;;;3.13;2.42;;;23.50;51.30;;;;;;6176805;28;82126;-55
2023/11/13 01:01:52;;;;;;;4.82;2.70;;;23.50;51.50;;;;;;6179669;28;80641;-56
2023/11/13 01:04:53;;;;;;;5.25;2.72;;;23.50;51.20;;;;;;6178470;28;83003;-56
2023/11/13 01:07:53;;;;;;;5.05;3.13;;;23.50;51.30;;;;;;6178960;28;80902;-57
2023/11/13 01:10:54;;;;;;;4.40;2.53;;;23.40;51.40;;;;;;6177742;28;81004;-57
2023/11/13 01:13:54;;;;;;;2.65;2.35;;;23.40;51.30;;;;;;6177460;28;80871;-54
2023/11/13 01:16:55;;;;;;;4.15;2.50;;;23.40;51.30;;;;;;6178651;28;80480;-56
2023/11/13 01:19:56;;;;;;;4.60;2.47;;;23.40;51.20;;;;;;6177287;28;79981;-54
2023/11/13 01:22:56;;;;;;;4.20;2.40;;;23.40;51.10;;;;;;6177810;28;83502;-55
2023/11/13 01:25:57;;;;;;;5.35;2.42;;;23.40;51.00;;;;;;6178632;28;81099;-61
2023/11/13 01:28:57;;;;;;;4.45;2.45;;;23.40;50.90;;;;;;6178112;28;81839;-61
2023/11/13 01:31:58;;;;;;;3.67;2.30;;;23.50;51.10;;;;;;6177076;28;80969;-60
2023/11/13 01:34:59;;;;;;;4.07;2.70;;;23.40;50.80;;;;;;6176937;28;81698;-60
2023/11/13 01:37:59;;;;;;;3.60;2.40;;;23.40;51.10;;;;;;6177871;28;80822;-60
2023/11/13 01:41:00;;;;;;;3.78;2.38;;;23.40;50.40;;;;;;6178558;28;80489;-60
2023/11/13 01:44:01;;;;;;;5.03;2.47;;;23.40;50.50;;;;;;6176948;28;83364;-65
2023/11/13 01:47:01;;;;;;;3.38;1.98;;;23.40;50.10;;;;;;6166305;28;80570;-69
2023/11/13 01:50:02;;;;;;;3.58;2.30;;;23.50;49.70;;;;;;6177721;28;81327;-67
2023/11/13 01:53:02;;;;;;;3.00;1.80;;;23.50;49.80;;;;;;6178867;28;81162;-67
2023/11/13 01:56:03;;;;;;;5.30;1.90;;;23.50;49.60;;;;;;6177477;28;83884;-66
2023/11/13 01:59:04;;;;;;;2.90;1.92;;;23.50;49.70;;;;;;6177521;28;81423;-67
2023/11/13 02:02:04;;;;;;;3.13;2.00;;;23.50;50.00;;;;;;6175529;28;81914;-59
2023/11/13 02:05:05;;;;;;;3.03;1.70;;;23.50;50.10;;;;;;6164255;28;81370;-61
2023/11/13 02:08:07;;;;;;;2.00;1.67;;;23.50;50.10;;;;;;6167446;28;84083;-59
2023/11/13 02:11:08;;;;;;;2.65;2.00;;;23.50;49.90;;;;;;6176578;28;80530;-59
2023/11/13 02:14:08;;;;;;;6.07;2.50;;;23.50;50.10;;;;;;6175438;28;83561;-59
2023/11/13 02:17:10;;;;;;;4.13;1.98;;;23.50;49.90;;;;;;6178090;28;81787;-59
2023/11/13 02:20:10;;;;;;;2.72;2.15;;;23.50;49.80;;;;;;6174809;28;83279;-57
2023/11/13 02:23:11;;;;;;;2.85;1.92;;;23.50;49.90;;;;;;6178299;28;83709;-57
2023/11/13 02:26:13;;;;;;;4.20;1.83;;;23.50;49.70;;;;;;6175891;28;82799;-56
2023/11/13 02:29:13;;;;;;;2.75;1.88;;;23.50;49.80;;;;;;6175752;28;83078;-58
2023/11/13 02:32:14;;;;;;;2.35;1.80;;;23.50;49.80;;;;;;6176554;28;82153;-56
2023/11/13 02:35:15;;;;;;;2.72;2.10;;;23.50;49.40;;;;;;6176184;28;80263;-55
2023/11/13 02:38:15;;;;;;;3.47;1.80;;;23.40;49.80;;;;;;6174321;28;83845;-57
2023/11/13 02:41:16;;;;;;;2.95;2.20;;;23.40;49.60;;;;;;6174681;28;82804;-54
2023/11/13 02:44:18;;;;;;;2.80;1.67;;;23.40;49.50;;;;;;6174771;28;83280;-55
2023/11/13 02:47:19;;;;;;;2.20;1.60;;;23.50;49.40;;;;;;6178249;28;80753;-55
2023/11/13 02:50:20;;;;;;;3.30;1.88;;;23.40;49.40;;;;;;6176569;28;80480;-55
2023/11/13 02:53:21;;;;;;;1.73;1.42;;;23.40;49.40;;;;;;6175904;28;81153;-55
2023/11/13 02:56:22;;;;;;;2.47;1.70;;;23.40;49.40;;;;;;6175837;28;82573;-58
2023/11/13 02:59:22;;;;;;;3.00;1.85;;;23.40;49.20;;;;;;6175706;28;81501;-56
2023/11/13 03:02:23;;;;;;;2.10;1.33;;;23.40;49.20;;;;;;6175666;28;80843;-56
2023/11/13 03:05:23;;;;;;;2.67;2.00;;;23.40;49.10;;;;;;6175861;28;80364;-56
2023/11/13 03:08:24;;;;;;;2.75;1.65;;;23.40;49.10;;;;;;6177239;28;80242;-56
2023/11/13 03:11:24;;;;;;;2.40;1.50;;;23.40;49.00;;;;;;6178129;28;81832;-55
2023/11/13 03:14:25;;;;;;;1.90;1.50;;;23.40;49.80;;;;;;6173872;28;81283;-56
2023/11/13 03:17:26;;;;;;;2.33;1.50;;;23.40;48.50;;;;;;6176084;28;80379;-57
2023/11/13 03:20:26;;;;;;;2.80;2.00;;;23.40;48.60;;;;;;6190811;28;85993;-57
2023/11/13 03:23:27;;;;;;;3.25;1.77;;;23.40;48.20;;;;;;6195194;28;82483;-57
2023/11/13 03:26:29;;;;;;;2.95;1.50;;;23.40;48.10;;;;;;6184164;28;82132;-56
2023/11/13 03:29:29;;;;;;;2.47;1.88;;;23.40;48.30;;;;;;6186287;28;81279;-56
2023/11/13 03:32:30;;;;;;;2.70;1.77;;;23.40;48.10;;;;;;6172683;28;83127;-57
2023/11/13 03:35:31;;;;;;;2.10;1.38;;;23.40;48.30;;;;;;6176395;28;86886;-57
2023/11/13 03:38:33;;;;;;;2.30;1.48;;;23.40;47.90;;;;;;6189437;28;81792;-57
2023/11/13 03:41:34;;;;;;;1.95;1.30;;;23.40;48.20;;;;;;6181145;28;82064;-57
2023/11/13 03:44:35;;;;;;;3.38;1.98;;;23.40;48.30;;;;;;6175363;28;80517;-54
2023/11/13 03:47:36;;;;;;;2.88;1.60;;;23.40;48.30;;;;;;6175596;28;81752;-55
2023/11/13 03:50:37;;;;;;;2.10;1.70;;;23.40;48.00;;;;;;6174750;28;80473;-63
2023/11/13 03:53:38;;;;;;;3.33;1.83;;;23.40;47.70;;;;;;6176845;28;80775;-57
2023/11/13 03:56:38;;;;;;;2.50;1.40;;;23.40;47.60;;;;;;6175577;28;81072;-56
2023/11/13 03:59:39;;;;;;;2.42;1.58;;;23.40;47.70;;;;;;6175069;28;80587;-56
2023/11/13 04:02:39;;;;;;;3.33;1.60;;;23.40;47.60;;;;;;6173155;28;82067;-55
2023/11/13 04:05:40;;;;;;;2.03;1.48;;;23.50;47.70;;;;;;6174250;28;81728;-55
2023/11/13 04:08:40;;;;;;;1.60;1.35;;;23.40;47.90;;;;;;6175201;28;80482;-57
2023/11/13 04:11:41;;;;;;;1.75;1.25;;;23.40;47.90;;;;;;6174497;28;80534;-57
2023/11/13 04:14:42;;;;;;;1.67;1.30;;;23.40;48.00;;;;;;6175547;28;83533;-57
2023/11/13 04:17:42;;;;;;;2.25;1.35;;;23.40;48.10;;;;;;6173435;28;80913;-58
2023/11/13 04:20:43;;;;;;;1.40;1.13;;;23.50;48.10;;;;;;6171336;28;80204;-54
2023/11/13 04:23:43;;;;;;;1.38;1.23;;;23.50;47.50;;;;;;6173698;28;83063;-52
2023/11/13 04:26:44;;;;;;;2.50;1.52;;;23.50;48.00;;;;;;6172410;28;80344;-52
2023/11/13 04:29:44;;;;;;;1.80;1.27;;;23.50;47.00;;;;;;6173910;28;80913;-55
2023/11/13 04:32:45;;;;;;;2.28;1.45;;;23.50;47.30;;;;;;6168702;28;80609;-52
2023/11/13 04:35:46;;;;;;;2.72;1.35;;;23.50;47.40;;;;;;6175989;28;80267;-57
2023/11/13 04:38:46;;;;;;;3.45;1.33;;;23.50;47.20;;;;;;6164654;28;82754;-57
2023/11/13 04:41:47;;;;;;;1.65;1.38;;;23.50;47.00;;;;;;6172795;28;80482;-57
2023/11/13 04:44:48;;;;;;;3.33;1.10;;;23.60;47.00;;;;;;6175089;28;81001;-57
2023/11/13 04:47:48;;;;;;;3.15;1.70;;;23.60;46.90;;;;;;6172196;28;80375;-60
2023/11/13 04:50:49;;;;;;;2.75;1.73;;;23.60;46.70;;;;;;6174366;28;80349;-59
2023/11/13 04:53:49;;;;;;;1.73;1.20;;;23.60;46.70;;;;;;6171586;28;80950;-59
2023/11/13 04:56:50;;;;;;;2.45;1.40;;;23.60;46.60;;;;;;6175155;28;80578;-60
2023/11/13 04:59:50;;;;;;;1.13;1.00;;;23.60;46.50;;;;;;6174791;28;81263;-59
2023/11/13 05:02:51;;;;;;;2.25;1.40;;;23.70;46.40;;;;;;6174761;28;80179;-59
2023/11/13 05:05:51;;;;;;;4.53;1.25;;;23.70;46.30;;;;;;6174997;28;80732;-58
2023/11/13 05:08:52;;;;;;;1.92;1.13;;;23.70;46.20;;;;;;6179041;28;80652;-58
2023/11/13 05:11:52;;;;;;;1.38;1.15;;;23.70;46.10;;;;;;6177495;28;82033;-57
2023/11/13 05:14:53;;;;;;;1.60;1.10;;;23.80;46.80;;;;;;6179591;28;80886;-58
2023/11/13 05:17:54;;;;;;;1.85;1.20;;;23.80;46.50;;;;;;6154968;28;80669;-58
2023/11/13 05:20:54;;;;;;;3.20;1.27;;;23.80;46.80;;;;;;6163943;28;81251;-57
2023/11/13 05:23:55;;;;;;;6.38;1.60;;;23.80;46.90;;;;;;6158004;28;80544;-57
2023/11/13 05:26:56;;;;;;;4.22;2.05;;;23.80;46.80;;;;;;6165978;28;81000;-57
2023/11/13 05:29:56;;;;;;;3.35;2.00;;;23.80;46.80;;;;;;6173732;28;80528;-56
2023/11/13 05:32:57;;;;;;;3.50;1.95;;;23.80;47.00;;;;;;6177115;28;80957;-55
2023/11/13 05:35:57;;;;;;;24.73;2.53;;;23.80;47.20;;;;;;6156507;28;80445;-55
2023/11/13 05:38:58;;;;;;;3.80;1.60;;;23.80;47.80;;;;;;6176812;28;80573;-57
2023/11/13 05:41:58;;;;;;;5.75;2.33;;;23.80;48.10;;;;;;6176227;28;82285;-66
2023/11/13 05:44:59;;;;;;;4.47;1.50;;;23.80;48.30;;;;;;6177194;28;80711;-66
2023/11/13 05:47:59;;;;;;;2.22;1.50;;;23.80;48.40;;;;;;6177857;28;80820;-64
2023/11/13 05:51:00;;;;;;;5.55;1.63;;;23.80;48.10;;;;;;6177299;28;80291;-68
2023/11/13 05:54:00;;;;;;;3.28;1.98;;;23.80;48.10;;;;;;6177614;28;81412;-70
2023/11/13 05:57:01;;;;;;;4.80;2.10;;;23.80;48.10;;;;;;6176947;28;80693;-68
2023/11/13 06:00:01;;;;;;;7.45;2.13;;;23.80;48.60;;;;;;6176530;28;80409;-65
2023/11/13 06:03:02;;;;;;;5.68;1.70;;;23.70;47.20;;;;;;6174174;28;84032;-66
2023/11/13 06:06:06;;;;;;;6.55;1.85;;;23.60;45.80;;;;;;6173647;28;80823;-65
2023/11/13 06:09:11;;;;;;;5.90;1.67;;;23.50;45.10;;;;;;6172383;28;81211;-65
2023/11/13 06:12:13;;;;;;;3.60;1.50;;;23.40;44.50;;;;;;6166894;28;80485;-64
2023/11/13 06:15:13;;;;;;;4.20;1.70;;;23.30;44.00;;;;;;6174386;28;80500;-65
2023/11/13 06:18:14;;;;;;;2.25;1.50;;;23.30;43.70;;;;;;6174911;28;80634;-59
2023/11/13 06:21:14;;;;;;;4.38;1.88;;;23.20;43.40;;;;;;6174744;28;80971;-59
2023/11/13 06:24:15;;;;;;;2.28;1.30;;;23.20;43.10;;;;;;6174531;28;80349;-59
2023/11/13 06:27:15;;;;;;;3.92;1.38;;;23.10;43.00;;;;;;6176771;28;80841;-59
2023/11/13 06:30:16;;;;;;;2.55;1.40;;;23.10;42.80;;;;;;6174575;28;80862;-59
2023/11/13 06:33:17;;;;;;;4.22;1.83;;;23.00;42.40;;;;;;6177594;28;81045;-58
2023/11/13 06:36:18;;;;;;;2.75;1.63;;;22.90;42.30;;;;;;6176739;28;80339;-59
2023/11/13 06:39:19;;;;;;;4.18;1.60;;;22.90;42.20;;;;;;6175325;28;80377;-59
2023/11/13 06:42:19;;;;;;;2.75;1.67;;;22.90;42.10;;;;;;6176756;28;80505;-58
2023/11/13 06:45:20;;;;;;;2.78;1.80;;;22.80;41.90;;;;;;6176567;28;81883;-58
2023/11/13 06:48:21;;;;;;;3.65;1.80;;;22.80;41.90;;;;;;6175569;28;81647;-58
2023/11/13 06:51:22;;;;;;;3.38;2.30;;;22.80;41.70;;;;;;6169532;28;80913;-59
2023/11/13 06:54:23;;;;;;;4.25;1.92;;;22.70;41.50;;;;;;6171396;28;80882;-59
2023/11/13 06:57:27;;;;;;;6.45;2.08;;;22.70;41.60;;;;;;6175285;28;80615;-66
2023/11/13 07:00:29;;;;;;;3.67;1.90;;;22.70;41.50;;;;;;6175883;28;80384;-64
2023/11/13 07:03:29;;;;;;;7.00;2.05;;;22.70;41.30;;;;;;6176560;28;83478;-63
2023/11/13 07:06:31;;;;;;;5.30;1.98;;;22.60;41.30;;;;;;6176898;28;80535;-64
2023/11/13 07:09:33;;;;;;;3.17;2.00;;;22.60;41.10;;;;;;6175994;28;80720;-64
2023/11/13 07:12:34;;;;;;;5.30;2.40;;;22.60;41.10;;;;;;6175202;28;80412;-64
2023/11/13 07:15:35;;;;;;;3.10;1.90;;;22.60;41.00;;;;;;6175703;28;80150;-64
2023/11/13 07:18:35;;;;;;;4.00;2.20;;;22.50;40.90;;;;;;6175312;28;81176;-64
2023/11/13 07:21:36;;;;;;;5.55;2.40;;;22.50;40.90;;;;;;6175954;28;80707;-65
2023/11/13 07:24:37;;;;;;;5.47;2.28;;;22.50;40.70;;;;;;6176150;28;81257;-65
2023/11/13 07:27:38;;;;;;;3.95;2.30;;;22.50;40.80;;;;;;6174044;28;81180;-64
2023/11/13 07:30:38;;;;;;;4.15;2.00;;;22.50;40.70;;;;;;6174389;28;81240;-65
2023/11/13 07:33:39;;;;;;;4.50;2.25;;;22.50;40.80;;;;;;6175355;28;80416;-60
2023/11/13 07:36:39;;;;;;;4.80;2.08;;;22.50;40.60;;;;;;6175011;28;80949;-59
2023/11/13 07:39:40;;;;;;;5.10;2.38;;;22.50;40.70;;;;;;6175594;28;80541;-59
2023/11/13 07:42:40;;;;;;;7.72;2.30;;;22.40;40.70;;;;;;6174771;28;80354;-59
2023/11/13 07:45:42;;;;;;;5.03;2.45;;;22.40;40.70;;;;;;6175728;28;80961;-59
2023/11/13 07:48:42;;;;;;;4.05;2.35;;;22.40;41.20;;;;;;6188138;28;85591;-60
2023/11/13 07:51:43;;;;;;;5.93;1.92;;;22.40;40.60;;;;;;6174732;28;81398;-59
2023/11/13 07:54:44;;;;;;;4.72;2.35;;;22.40;40.60;;;;;;6175179;28;80259;-59
2023/11/13 07:57:44;;;;;;;8.90;2.63;;;22.40;40.60;;;;;;6174990;28;81168;-59
2023/11/13 08:00:45;;;;;;;4.47;2.83;;;22.40;40.70;;;;;;6175459;28;80309;-59
2023/11/13 08:03:47;;;;;;;4.03;2.33;;;22.40;40.80;;;;;;6173613;28;80708;-60
2023/11/13 08:06:48;;;;;;;5.85;2.83;;;22.50;40.80;;;;;;6175611;28;80706;-60
2023/11/13 08:09:48;;;;;;;3.30;2.15;;;22.50;40.80;;;;;;6175579;28;80786;-60
2023/11/13 08:12:49;;;;;;;5.22;2.38;;;22.40;40.80;;;;;;6173457;28;82304;-60
2023/11/13 08:15:51;;;;;;;3.28;2.10;;;22.40;40.80;;;;;;6175297;28;80655;-60
2023/11/13 08:18:51;;;;;;;4.25;2.38;;;22.50;40.90;;;;;;6174491;28;80717;-62
2023/11/13 08:21:52;;;;;;;6.65;2.35;;;22.40;40.90;;;;;;6175067;28;80840;-60
2023/11/13 08:24:53;;;;;;;3.83;2.17;;;22.50;41.00;;;;;;6174817;28;80500;-60
2023/11/13 08:27:53;;;;;;;4.00;2.25;;;22.50;41.00;;;;;;6175740;28;80487;-63
2023/11/13 08:30:56;;;;;;;3.70;2.30;;;22.50;40.90;;;;;;6172669;28;80980;-64
2023/11/13 08:33:56;;;;;;;4.70;2.72;;;22.60;41.00;;;;;;6175163;28;81970;-63
2023/11/13 08:36:57;;;;;;;4.95;2.80;;;22.50;41.00;;;;;;6173556;28;81416;-64
2023/11/13 08:39:57;;;;;;;5.70;2.78;;;22.50;41.00;;;;;;6174088;28;80580;-61
2023/11/13 08:42:58;;;;;;;4.60;2.58;;;22.50;41.00;;;;;;6178656;28;81468;-63
2023/11/13 08:46:03;;;;;;;7.60;2.83;;;22.50;41.00;;;;;;6202827;28;80540;-64
2023/11/13 08:49:06;;;;;;;5.88;2.63;;;22.50;40.90;;;;;;6202418;28;80743;-64
2023/11/13 08:52:06;;;;;;;4.57;2.83;;;22.50;41.00;;;;;;6202627;28;80124;-62
2023/11/13 08:55:10;;;;;;;7.50;3.05;;;22.50;41.00;;;;;;6198733;28;80572;-64
2023/11/13 08:58:10;;;;;;;5.38;2.38;;;22.50;40.90;;;;;;6179381;28;80979;-65
2023/11/13 09:01:11;;;;;;;6.45;3.10;;;22.50;41.20;;;;;;6183048;28;81875;-64
2023/11/13 09:04:13;;;;;;;5.65;2.83;;;22.50;41.00;;;;;;6201488;28;80335;-64
2023/11/13 09:07:17;;;;;;;5.30;2.85;;;22.50;40.90;;;;;;6185479;28;80760;-63
2023/11/13 09:10:21;;;;;;;5.25;2.70;;;22.50;40.90;;;;;;6180099;28;80717;-63
2023/11/13 09:13:23;;;;;;;5.25;3.28;;;22.50;40.90;;;;;;6180815;28;80989;-64
2023/11/13 09:16:23;;;;;;;7.45;2.92;;;22.50;40.90;;;;;;6184249;28;80453;-63
2023/11/13 09:19:25;;;;;;;5.95;3.47;;;22.50;40.90;;;;;;6188081;28;80432;-64
2023/11/13 09:22:26;;;;;;;8.52;3.33;;;22.50;40.80;;;;;;6188531;28;80349;-65
2023/11/13 09:25:28;;;;;;;6.28;3.00;;;22.60;40.80;;;;;;6178196;28;80729;-63
2023/11/13 09:28:29;;;;;;;7.35;3.45;;;22.60;40.70;;;;;;6177768;28;80342;-63
2023/11/13 09:31:29;;;;;;;5.53;3.10;;;22.60;40.70;;;;;;6171243;28;80646;-63
2023/11/13 09:34:31;;;;;;;5.43;3.10;;;22.70;40.80;;;;;;6182511;28;80816;-63
2023/11/13 09:37:32;;;;;;;4.72;2.90;;;22.70;40.60;;;;;;6200880;28;80598;-63
2023/11/13 09:40:35;;;;;;;6.47;3.67;;;22.70;40.60;;;;;;6202540;28;80644;-64
2023/11/13 09:43:36;;;;;;;5.75;3.47;;;22.90;40.60;;;;;;6202113;28;81353;-64
2023/11/13 09:46:37;;;;;;;6.97;3.08;;;23.00;40.50;;;;;;6202362;28;80444;-64
2023/11/13 09:49:38;;;;;;;6.65;3.42;;;23.10;40.00;;;;;;6201644;28;80983;-65
2023/11/13 09:52:38;;;;;;;4.82;3.40;;;23.30;40.00;;;;;;6198069;28;80578;-64
2023/11/13 09:55:41;;;;;;;5.75;3.20;;;23.40;40.00;;;;;;6201671;28;80212;-65
2023/11/13 09:58:41;;;;;;;6.35;3.42;;;23.40;39.70;;;;;;6187720;28;80847;-65
2023/11/13 10:01:43;;;;;;;8.23;3.13;;;23.30;39.80;;;;;;6186494;28;81067;-64
2023/11/13 10:04:43;;;;;;;3.97;2.63;;;23.30;40.00;;;;;;6201858;28;80593;-63
2023/11/13 10:07:44;;;;;;;6.53;2.67;;;23.20;39.90;;;;;;6198224;28;80274;-64
2023/11/13 10:10:45;;;;;;;5.53;2.92;;;23.10;39.90;;;;;;6200864;28;80372;-63
2023/11/13 10:13:46;;;;;;;4.63;2.85;;;23.10;40.30;;;;;;6183644;28;82933;-64
2023/11/13 10:16:46;;;;;;;4.22;2.90;;;23.10;40.00;;;;;;6177734;28;80520;-77
2023/11/13 10:19:47;;;;;;;4.07;2.55;;;23.00;40.20;;;;;;6179067;28;86944;-77
2023/11/13 10:22:47;;;;;;;3.08;2.55;;;23.00;40.00;;;;;;6177867;28;83149;-77
2023/11/13 10:25:53;;;;;;;4.47;2.53;;;23.00;40.20;;;;;;6179152;28;80476;-75
2023/11/13 10:28:53;;;;;;;5.20;2.60;;;23.00;40.30;;;;;;6178284;28;81786;-75
2023/11/13 10:31:54;;;;;;;4.88;2.63;;;22.90;40.30;;;;;;6176821;28;80330;-76
2023/11/13 10:34:54;;;;;;;3.90;2.95;;;22.90;40.20;;;;;;6177917;28;81782;-63
2023/11/13 10:37:59;;;;;;;6.25;3.03;;;22.90;40.20;;;;;;6177416;28;80524;-59
2023/11/13 10:41:00;;;;;;;6.97;3.25;;;22.90;40.30;;;;;;6176956;28;80375;-59
2023/11/13 10:44:00;;;;;;;7.15;3.30;;;22.90;40.40;;;;;;6177898;28;80396;-59
2023/11/13 10:47:01;;;;;;;5.95;3.38;;;22.90;40.80;;;;;;6176625;28;83829;-59
2023/11/13 10:50:01;;;;;;;5.95;3.03;;;22.90;40.50;;;;;;6175992;28;81541;-58
2023/11/13 10:53:02;;;;;;;5.60;3.42;;;22.80;40.50;;;;;;6180070;28;87561;-59
2023/11/13 10:56:02;;;;;;;5.38;3.40;;;22.80;40.70;;;;;;6177196;28;80908;-58
2023/11/13 10:59:03;;;;;;;5.13;3.45;;;22.80;40.50;;;;;;6188456;28;83271;-60
2023/11/13 11:02:05;;;;;;;5.28;3.65;;;22.80;40.50;;;;;;6200797;28;80229;-59
2023/11/13 11:05:10;;;;;;;6.68;3.63;;;22.80;40.60;;;;;;6195946;28;80257;-59
2023/11/13 11:08:12;;;;;;;5.30;3.33;;;22.70;40.60;;;;;;6202039;28;81227;-59
2023/11/13 11:11:13;;;;;;;8.95;3.28;;;22.70;40.60;;;;;;6200553;28;80491;-59
2023/11/13 11:14:15;;;;;;;6.15;3.50;;;22.70;40.60;;;;;;6180846;28;80582;-59
2023/11/13 11:17:16;;;;;;;5.07;3.20;;;22.70;40.80;;;;;;6176596;28;80607;-59
2023/11/13 11:20:17;;;;;;;5.75;3.20;;;22.70;40.60;;;;;;6158714;28;81506;-60
2023/11/13 11:23:17;;;;;;;5.43;3.30;;;22.70;40.70;;;;;;6149133;28;80898;-60
2023/11/13 11:26:19;;;;;;;8.13;3.80;;;22.70;40.60;;;;;;6189821;28;80546;-60
2023/11/13 11:29:20;;;;;;;6.75;3.40;;;22.70;40.80;;;;;;6177781;28;81845;-59
2023/11/13 11:32:20;;;;;;;5.47;2.97;;;22.70;40.60;;;;;;6176655;28;80669;-60
2023/11/13 11:35:21;;;;;;;4.82;3.20;;;22.70;40.70;;;;;;6185951;28;81425;-60
2023/11/13 11:38:28;;;;;;;6.72;3.22;;;22.60;40.60;;;;;;6194450;28;81171;-60
2023/11/13 11:41:28;;;;;;;4.85;3.17;;;22.60;40.60;;;;;;6175507;28;81773;-60
2023/11/13 11:44:29;;;;;;;6.85;3.15;;;22.60;40.60;;;;;;6190514;28;80691;-60
2023/11/13 11:47:30;;;;;;;4.85;3.15;;;22.60;40.50;;;;;;6185135;28;80335;-61
2023/11/13 11:50:30;;;;;;;6.63;3.08;;;22.60;40.50;;;;;;6175540;28;80555;-60
2023/11/13 11:53:31;;;;;;;5.30;3.15;;;22.60;40.60;;;;;;6176337;28;80425;-59
2023/11/13 11:56:31;;;;;;;5.57;3.28;;;22.50;40.50;;;;;;6175817;28;80325;-59
2023/11/13 11:59:32;;;;;;;5.30;3.05;;;22.60;40.50;;;;;;6175896;28;80295;-60
2023/11/13 12:02:33;;;;;;;6.63;3.00;;;22.60;40.50;;;;;;6184071;28;81531;-59
2023/11/13 12:05:33;;;;;;;6.05;3.10;;;22.60;40.50;;;;;;6175388;28;80492;-59
2023/11/13 12:08:34;;;;;;;5.95;3.30;;;22.60;40.50;;;;;;6176177;28;81658;-64
2023/11/13 12:11:34;;;;;;;5.35;2.88;;;22.50;40.40;;;;;;6175603;28;80826;-65
2023/11/13 12:14:35;;;;;;;5.82;3.08;;;22.50;40.40;;;;;;6175128;28;80926;-65
2023/11/13 12:17:35;;;;;;;6.50;3.15;;;22.50;40.30;;;;;;6173393;28;80245;-65
2023/11/13 12:20:36;;;;;;;5.43;2.97;;;22.50;40.30;;;;;;6191003;28;80260;-65
2023/11/13 12:23:36;;;;;;;4.97;2.45;;;22.50;40.40;;;;;;6163080;28;80700;-65
2023/11/13 12:26:37;;;;;;;5.13;3.15;;;22.50;40.20;;;;;;6157887;28;86251;-75
2023/11/13 12:29:38;;;;;;;4.30;2.72;;;22.60;40.20;;;;;;6178278;28;80304;-72
2023/11/13 12:32:39;;;;;;;5.47;3.22;;;22.60;40.00;;;;;;6177043;28;80441;-74
2023/11/13 12:35:40;;;;;;;4.72;3.00;;;22.60;40.10;;;;;;6191636;28;81403;-73
2023/11/13 12:38:40;;;;;;;5.75;3.10;;;22.60;39.90;;;;;;6199124;28;81465;-72
2023/11/13 12:41:41;;;;;;;5.65;2.97;;;22.70;39.80;;;;;;6198470;28;81717;-73
2023/11/13 12:44:42;;;;;;;7.13;2.78;;;22.80;39.70;;;;;;6193317;28;80861;-73
2023/11/13 12:47:42;;;;;;;4.32;2.67;;;22.70;39.60;;;;;;6185523;28;80575;-69
2023/11/13 12:50:43;;;;;;;4.75;2.80;;;22.70;39.50;;;;;;6176177;28;80724;-72
2023/11/13 12:53:44;;;;;;;3.92;2.53;;;22.70;39.50;;;;;;6175367;28;80215;-72
2023/11/13 12:56:44;;;;;;;3.55;2.55;;;22.70;39.50;;;;;;6176703;28;80387;-72
2023/11/13 12:59:45;;;;;;;5.10;2.75;;;22.60;39.40;;;;;;6174312;28;80441;-71
2023/11/13 13:02:46;;;;;;;3.85;2.78;;;22.60;39.40;;;;;;6175159;28;81278;-71
2023/11/13 13:05:47;;;;;;;5.28;2.30;;;22.60;39.50;;;;;;6175941;28;80610;-71
2023/11/13 13:08:47;;;;;;;3.50;2.40;;;22.60;39.40;;;;;;6175357;28;82870;-71
2023/11/13 13:11:49;;;;;;;4.68;2.65;;;22.60;39.40;;;;;;6174805;28;80498;-73
2023/11/13 13:14:51;;;;;;;5.22;1.95;;;22.60;39.20;;;;;;6163679;28;81552;-74
2023/11/13 13:17:52;;;;;;;4.45;2.47;;;22.60;39.10;;;;;;6164316;28;82984;-74
2023/11/13 13:20:52;;;;;;;7.97;2.00;;;22.70;39.10;;;;;;6172864;28;80491;-74
2023/11/13 13:23:54;;;;;;;6.50;2.35;;;22.70;39.00;;;;;;6175437;28;80906;-75
2023/11/13 13:26:57;;;;;;;5.00;2.60;;;22.80;38.80;;;;;;6174142;28;82491;-73
2023/11/13 13:29:57;;;;;;;2.92;1.90;;;22.80;38.90;;;;;;6178221;28;80447;-74
2023/11/13 13:32:58;;;;;;;2.95;2.05;;;22.80;38.70;;;;;;6180135;28;81665;-74
2023/11/13 13:35:59;;;;;;;3.85;2.25;;;22.80;38.70;;;;;;6178840;28;80518;-75
2023/11/13 13:38:59;;;;;;;2.92;2.05;;;22.80;38.50;;;;;;6180474;28;80507;-77
2023/11/13 13:42:01;;;;;;;3.00;1.77;;;22.80;38.50;;;;;;6180230;28;80319;-76
2023/11/13 13:45:03;;;;;;;2.85;1.70;;;22.80;38.30;;;;;;6179741;28;80133;-76
2023/11/13 13:48:03;;;;;;;4.32;2.10;;;22.90;38.20;;;;;;6178183;28;80389;-75
2023/11/13 13:51:05;;;;;;;3.85;1.70;;;23.00;38.00;;;;;;6179275;28;81247;-75
2023/11/13 13:54:07;;;;;;;5.50;1.88;;;23.00;37.80;;;;;;6178391;28;80367;-74
2023/11/13 13:57:07;;;;;;;3.70;1.95;;;23.10;37.70;;;;;;6178812;28;80299;-75
2023/11/13 14:00:10;;;;;;;4.00;1.67;;;23.00;37.70;;;;;;6179242;28;80480;-74
2023/11/13 14:03:11;;;;;;;4.68;2.25;;;23.00;37.70;;;;;;6165914;28;81008;-72
2023/11/13 14:06:12;;;;;;;4.75;2.38;;;22.90;37.90;;;;;;6178636;28;80660;-71
2023/11/13 14:09:16;;;;;;;4.43;2.25;;;23.00;37.90;;;;;;6178672;28;80348;-71
2023/11/13 14:12:17;;;;;;;2.20;1.65;;;23.00;37.90;;;;;;6177468;28;80402;-77
2023/11/13 14:15:18;;;;;;;3.42;1.83;;;23.00;37.80;;;;;;6179699;28;80601;-78
2023/11/13 14:18:18;;;;;;;3.65;2.00;;;23.00;37.80;;;;;;6176981;28;80529;-64
2023/11/13 14:21:19;;;;;;;3.45;1.70;;;23.00;37.90;;;;;;6178975;28;81823;-64
2023/11/13 14:24:21;;;;;;;3.75;2.33;;;22.90;37.80;;;;;;6177354;28;80205;-63
2023/11/13 14:27:23;;;;;;;5.65;1.80;;;22.90;37.80;;;;;;6177504;28;81748;-63
2023/11/13 14:30:25;;;;;;;2.42;1.55;;;22.90;38.00;;;;;;6175461;28;80374;-64
2023/11/13 14:33:26;;;;;;;2.72;1.60;;;22.80;38.00;;;;;;6177684;28;80884;-63
2023/11/13 14:36:27;;;;;;;2.92;1.73;;;22.70;38.00;;;;;;6177614;28;82162;-64
2023/11/13 14:39:27;;;;;;;2.75;1.88;;;22.70;38.10;;;;;;6176135;28;80991;-64
2023/11/13 14:42:28;;;;;;;6.03;2.17;;;22.70;38.10;;;;;;6177885;28;80587;-64
2023/11/13 14:45:29;;;;;;;3.53;1.90;;;22.70;38.10;;;;;;6178048;28;80137;-65
2023/11/13 14:48:30;;;;;;;7.03;2.00;;;22.70;38.00;;;;;;6169687;28;83612;-65
2023/11/13 14:51:32;;;;;;;2.50;1.83;;;22.60;37.90;;;;;;6176803;28;81157;-65
2023/11/13 14:54:34;;;;;;;11.63;2.08;;;22.50;38.00;;;;;;6177102;28;80792;-60
2023/11/13 14:57:34;;;;;;;5.50;1.80;;;22.50;38.30;;;;;;6171989;28;83442;-60
2023/11/13 15:00:35;;;;;;;5.13;1.98;;;22.50;38.50;;;;;;6174393;28;80639;-65
2023/11/13 15:03:35;;;;;;;4.43;1.90;;;22.50;38.90;;;;;;6177405;28;80477;-59
2023/11/13 15:06:36;;;;;;;4.32;1.80;;;22.50;39.30;;;;;;6176997;28;84657;-59
2023/11/13 15:09:37;;;;;;;21.13;2.28;;;22.50;39.20;;;;;;6176296;28;81007;-59
2023/11/13 15:12:39;;;;;;;2.90;1.60;;;22.40;39.50;;;;;;6176787;28;80755;-60
2023/11/13 15:15:40;;;;;;;4.85;2.38;;;22.40;39.70;;;;;;6173965;28;80567;-60
2023/11/13 15:18:41;;;;;;;5.40;2.08;;;22.40;39.60;;;;;;6174793;28;81393;-60
2023/11/13 15:21:41;;;;;;;4.07;2.25;;;22.40;39.50;;;;;;6176609;28;80581;-60
2023/11/13 15:24:42;;;;;;;5.97;2.38;;;22.40;39.90;;;;;;6175818;28;86312;-64
2023/11/13 15:27:43;;;;;;;5.93;2.33;;;22.40;40.10;;;;;;6173873;28;84312;-61
2023/11/13 15:30:43;;;;;;;10.60;2.60;;;22.30;40.90;;;;;;6175317;28;81097;-62
2023/11/13 15:33:44;;;;;;;8.35;2.90;;;22.40;41.40;;;;;;6175580;28;81140;-60
2023/11/13 15:36:45;;;;;;;7.20;2.80;;;22.40;41.70;;;;;;6176356;28;80042;-59
2023/11/13 15:39:45;;;;;;;5.80;2.47;;;22.40;41.80;;;;;;6175996;28;81363;-60